sensor_id;sensor_type;location;lat;lon;timestamp;pressure;altitude;pressure_sealevel;temperature;humidity
56084;BME280;41958;52.416;13.428;2023-03-11T00:00:30;98222.94;;;0.60;100.00
56084;BME280;41958;52.416;13.428;2023-03-11T00:02:58;98227.06;;;0.66;100.00
56084;BME280;41958;52.416;13.428;2023-03-11T00:05:29;98241.25;;;0.69;100.00
56084;BME280;41958;52.416;13.428;2023-03-11T00:07:55;98249.16;;;0.70;100.00
56084;BME280;41958;52.416;13.428;2023-03-11T00:10:24;98263.25;;;0.69;100.00
56084;BME280;41958;52.416;13.428;2023-03-11T00:12:49;98267.84;;;0.64;100.00
56084;BME280;41958;52.416;13.428;2023-03-11T00:15:14;98283.88;;;0.50;100.00
56084;BME280;41958;52.416;13.428;2023-03-11T00:17:40;98289.69;;;0.24;100.00
56084;BME280;41958;52.416;13.428;2023-03-11T00:20:06;98294.97;;;0.16;100.00
56084;BME280;41958;52.416;13.428;2023-03-11T00:22:32;98304.53;;;0.10;100.00
56084;BME280;41958;52.416;13.428;2023-03-11T00:24:58;98293.63;;;-0.11;100.00
56084;BME280;41958;52.416;13.428;2023-03-11T00:27:23;98311.44;;;-0.17;100.00
56084;BME280;41958;52.416;13.428;2023-03-11T00:29:48;98281.28;;;-0.38;100.00
56084;BME280;41958;52.416;13.428;2023-03-11T00:32:14;98332.94;;;-0.19;100.00
56084;BME280;41958;52.416;13.428;2023-03-11T00:34:39;98345.88;;;-0.20;100.00
56084;BME280;41958;52.416;13.428;2023-03-11T00:37:04;98327.69;;;-0.24;100.00
56084;BME280;41958;52.416;13.428;2023-03-11T00:39:30;98336.78;;;-0.32;100.00
56084;BME280;41958;52.416;13.428;2023-03-11T00:41:55;98350.97;;;-0.30;100.00
56084;BME280;41958;52.416;13.428;2023-03-11T00:44:21;98353.50;;;-0.25;100.00
56084;BME280;41958;52.416;13.428;2023-03-11T00:46:46;98360.69;;;-0.33;100.00
56084;BME280;41958;52.416;13.428;2023-03-11T00:49:11;98333.56;;;-0.56;100.00
56084;BME280;41958;52.416;13.428;2023-03-11T00:51:37;98364.88;;;-0.36;100.00
56084;BME280;41958;52.416;13.428;2023-03-11T00:54:02;98369.09;;;-0.38;100.00
56084;BME280;41958;52.416;13.428;2023-03-11T00:56:27;98376.28;;;-0.46;100.00
56084;BME280;41958;52.416;13.428;2023-03-11T00:58:52;98383.34;;;-0.45;100.00
56084;BME280;41958;52.416;13.428;2023-03-11T01:01:19;98369.56;;;-0.57;100.00
56084;BME280;41958;52.416;13.428;2023-03-11T01:03:44;98404.06;;;-0.47;100.00
56084;BME280;41958;52.416;13.428;2023-03-11T01:06:11;98409.84;;;-0.49;100.00
56084;BME280;41958;52.416;13.428;2023-03-11T01:08:36;98407.00;;;-0.53;100.00
56084;BME280;41958;52.416;13.428;2023-03-11T01:11:03;98427.25;;;-0.45;100.00
56084;BME280;41958;52.416;13.428;2023-03-11T01:13:29;98430.88;;;-0.53;100.00
56084;BME280;41958;52.416;13.428;2023-03-11T01:15:56;98427.41;;;-0.62;100.00
56084;BME280;41958;52.416;13.428;2023-03-11T01:18:21;98435.91;;;-0.55;100.00
56084;BME280;41958;52.416;13.428;2023-03-11T01:20:47;98446.53;;;-0.54;100.00
56084;BME280;41958;52.416;13.428;2023-03-11T01:23:14;98452.09;;;-0.62;100.00
56084;BME280;41958;52.416;13.428;2023-03-11T01:25:40;98460.94;;;-0.57;100.00
56084;BME280;41958;52.416;13.428;2023-03-11T01:28:06;98475.78;;;-0.58;100.00
56084;BME280;41958;52.416;13.428;2023-03-11T01:30:32;98460.69;;;-0.73;100.00
56084;BME280;41958;52.416;13.428;2023-03-11T01:32:58;98490.28;;;-0.57;100.00
56084;BME280;41958;52.416;13.428;2023-03-11T01:35:26;98495.75;;;-0.57;100.00
56084;BME280;41958;52.416;13.428;2023-03-11T01:37:51;98512.91;;;-0.60;100.00
56084;BME280;41958;52.416;13.428;2023-03-11T01:42:51;98515.78;;;-0.57;100.00
56084;BME280;41958;52.416;13.428;2023-03-11T01:45:37;98505.84;;;-0.70;100.00
56084;BME280;41958;52.416;13.428;2023-03-11T01:48:03;98532.78;;;-0.63;100.00
56084;BME280;41958;52.416;13.428;2023-03-11T01:50:34;98529.91;;;-0.76;100.00
56084;BME280;41958;52.416;13.428;2023-03-11T01:53:01;98549.22;;;-0.63;100.00
56084;BME280;41958;52.416;13.428;2023-03-11T01:55:28;98571.81;;;-0.66;100.00
56084;BME280;41958;52.416;13.428;2023-03-11T01:57:54;98564.91;;;-0.73;100.00
56084;BME280;41958;52.416;13.428;2023-03-11T02:00:20;98577.81;;;-0.73;100.00
56084;BME280;41958;52.416;13.428;2023-03-11T02:02:50;98589.25;;;-0.71;100.00
56084;BME280;41958;52.416;13.428;2023-03-11T02:05:18;98580.41;;;-0.77;100.00
56084;BME280;41958;52.416;13.428;2023-03-11T02:07:45;98601.34;;;-0.63;100.00
56084;BME280;41958;52.416;13.428;2023-03-11T02:10:12;98613.78;;;-0.66;100.00
56084;BME280;41958;52.416;13.428;2023-03-11T02:12:38;98616.69;;;-0.71;100.00
56084;BME280;41958;52.416;13.428;2023-03-11T02:15:04;98625.56;;;-0.74;100.00
56084;BME280;41958;52.416;13.428;2023-03-11T02:17:31;98638.47;;;-0.66;100.00
56084;BME280;41958;52.416;13.428;2023-03-11T02:22:39;98674.91;;;-0.65;100.00
56084;BME280;41958;52.416;13.428;2023-03-11T02:25:23;98661.88;;;-0.77;100.00
56084;BME280;41958;52.416;13.428;2023-03-11T02:27:51;98688.63;;;-0.65;100.00
56084;BME280;41958;52.416;13.428;2023-03-11T02:30:19;98692.03;;;-0.69;100.00
56084;BME280;41958;52.416;13.428;2023-03-11T02:32:46;98684.63;;;-0.77;100.00
56084;BME280;41958;52.416;13.428;2023-03-11T02:35:13;98715.09;;;-0.70;100.00
56084;BME280;41958;52.416;13.428;2023-03-11T02:37:46;98722.88;;;-0.72;100.00
56084;BME280;41958;52.416;13.428;2023-03-11T02:42:47;98733.81;;;-0.63;100.00
56084;BME280;41958;52.416;13.428;2023-03-11T02:45:17;98758.50;;;-0.63;100.00
56084;BME280;41958;52.416;13.428;2023-03-11T02:47:42;98759.16;;;-0.66;100.00
56084;BME280;41958;52.416;13.428;2023-03-11T02:50:11;98755.91;;;-0.68;100.00
56084;BME280;41958;52.416;13.428;2023-03-11T02:52:38;98774.66;;;-0.70;100.00
56084;BME280;41958;52.416;13.428;2023-03-11T02:55:04;98782.06;;;-0.62;100.00
56084;BME280;41958;52.416;13.428;2023-03-11T02:57:29;98781.91;;;-0.74;100.00
56084;BME280;41958;52.416;13.428;2023-03-11T02:59:55;98810.16;;;-0.65;100.00
56084;BME280;41958;52.416;13.428;2023-03-11T03:02:20;98801.91;;;-0.74;100.00
56084;BME280;41958;52.416;13.428;2023-03-11T03:04:45;98824.50;;;-0.59;100.00
56084;BME280;41958;52.416;13.428;2023-03-11T03:07:10;98834.97;;;-0.61;100.00
56084;BME280;41958;52.416;13.428;2023-03-11T03:09:36;98835.81;;;-0.61;100.00
56084;BME280;41958;52.416;13.428;2023-03-11T03:12:02;98838.72;;;-0.66;100.00
56084;BME280;41958;52.416;13.428;2023-03-11T03:14:28;98850.81;;;-0.58;100.00
56084;BME280;41958;52.416;13.428;2023-03-11T03:16:53;98868.88;;;-0.57;100.00
56084;BME280;41958;52.416;13.428;2023-03-11T03:19:19;98865.16;;;-0.61;100.00
56084;BME280;41958;52.416;13.428;2023-03-11T03:21:44;98869.81;;;-0.71;100.00
56084;BME280;41958;52.416;13.428;2023-03-11T03:24:09;98892.13;;;-0.63;100.00
56084;BME280;41958;52.416;13.428;2023-03-11T03:26:35;98904.06;;;-0.59;100.00
56084;BME280;41958;52.416;13.428;2023-03-11T03:29:01;98914.53;;;-0.61;100.00
56084;BME280;41958;52.416;13.428;2023-03-11T03:31:26;98917.78;;;-0.59;100.00
56084;BME280;41958;52.416;13.428;2023-03-11T03:33:51;98929.88;;;-0.60;100.00
56084;BME280;41958;52.416;13.428;2023-03-11T03:36:16;98936.63;;;-0.66;100.00
56084;BME280;41958;52.416;13.428;2023-03-11T03:38:42;98951.03;;;-0.61;100.00
56084;BME280;41958;52.416;13.428;2023-03-11T03:41:07;98963.44;;;-0.63;100.00
56084;BME280;41958;52.416;13.428;2023-03-11T03:43:33;98977.50;;;-0.65;100.00
56084;BME280;41958;52.416;13.428;2023-03-11T03:46:00;98991.50;;;-0.66;100.00
56084;BME280;41958;52.416;13.428;2023-03-11T03:48:26;98993.63;;;-0.63;100.00
56084;BME280;41958;52.416;13.428;2023-03-11T03:50:52;99008.59;;;-0.70;100.00
56084;BME280;41958;52.416;13.428;2023-03-11T03:53:17;99016.03;;;-0.70;100.00
56084;BME280;41958;52.416;13.428;2023-03-11T03:55:42;99018.47;;;-0.69;100.00
56084;BME280;41958;52.416;13.428;2023-03-11T03:58:07;99024.75;;;-0.68;100.00
56084;BME280;41958;52.416;13.428;2023-03-11T04:00:33;99037.34;;;-0.67;100.00
56084;BME280;41958;52.416;13.428;2023-03-11T04:02:58;99038.13;;;-0.66;100.00
56084;BME280;41958;52.416;13.428;2023-03-11T04:05:24;99061.56;;;-0.69;100.00
56084;BME280;41958;52.416;13.428;2023-03-11T04:07:51;99017.72;;;-0.92;100.00
56084;BME280;41958;52.416;13.428;2023-03-11T04:10:16;99068.16;;;-0.70;100.00
56084;BME280;41958;52.416;13.428;2023-03-11T04:12:41;99077.31;;;-0.75;100.00
56084;BME280;41958;52.416;13.428;2023-03-11T04:15:07;99079.13;;;-0.70;100.00
56084;BME280;41958;52.416;13.428;2023-03-11T04:17:33;99095.59;;;-0.70;100.00
56084;BME280;41958;52.416;13.428;2023-03-11T04:19:58;99094.63;;;-0.65;100.00
56084;BME280;41958;52.416;13.428;2023-03-11T04:22:23;99105.00;;;-0.62;100.00
56084;BME280;41958;52.416;13.428;2023-03-11T04:24:49;99102.06;;;-0.66;100.00
56084;BME280;41958;52.416;13.428;2023-03-11T04:27:14;99112.22;;;-0.66;100.00
56084;BME280;41958;52.416;13.428;2023-03-11T04:29:39;99125.47;;;-0.60;100.00
56084;BME280;41958;52.416;13.428;2023-03-11T04:32:05;99120.31;;;-0.61;100.00
56084;BME280;41958;52.416;13.428;2023-03-11T04:34:30;99130.81;;;-0.63;100.00
56084;BME280;41958;52.416;13.428;2023-03-11T04:36:55;99132.59;;;-0.59;100.00
56084;BME280;41958;52.416;13.428;2023-03-11T04:39:20;99144.53;;;-0.63;100.00
56084;BME280;41958;52.416;13.428;2023-03-11T04:41:46;99153.88;;;-0.64;100.00
56084;BME280;41958;52.416;13.428;2023-03-11T04:44:11;99153.34;;;-0.66;100.00
56084;BME280;41958;52.416;13.428;2023-03-11T04:46:36;99162.28;;;-0.61;100.00
56084;BME280;41958;52.416;13.428;2023-03-11T04:49:02;99166.81;;;-0.56;100.00
56084;BME280;41958;52.416;13.428;2023-03-11T04:51:27;99171.31;;;-0.60;100.00
56084;BME280;41958;52.416;13.428;2023-03-11T04:53:52;99172.94;;;-0.59;100.00
56084;BME280;41958;52.416;13.428;2023-03-11T04:56:17;99176.81;;;-0.60;100.00
56084;BME280;41958;52.416;13.428;2023-03-11T04:58:43;99195.06;;;-0.56;100.00
56084;BME280;41958;52.416;13.428;2023-03-11T05:01:08;99192.63;;;-0.57;100.00
56084;BME280;41958;52.416;13.428;2023-03-11T05:03:33;99207.66;;;-0.55;100.00
56084;BME280;41958;52.416;13.428;2023-03-11T05:05:58;99220.38;;;-0.59;100.00
56084;BME280;41958;52.416;13.428;2023-03-11T05:08:24;99212.34;;;-0.55;100.00
56084;BME280;41958;52.416;13.428;2023-03-11T05:10:50;99222.00;;;-0.58;100.00
56084;BME280;41958;52.416;13.428;2023-03-11T05:13:17;99237.38;;;-0.57;100.00
56084;BME280;41958;52.416;13.428;2023-03-11T05:15:44;99244.97;;;-0.54;100.00
56084;BME280;41958;52.416;13.428;2023-03-11T05:18:10;99247.38;;;-0.52;100.00
56084;BME280;41958;52.416;13.428;2023-03-11T05:20:35;99262.38;;;-0.58;100.00
56084;BME280;41958;52.416;13.428;2023-03-11T05:23:00;99273.94;;;-0.61;100.00
56084;BME280;41958;52.416;13.428;2023-03-11T05:25:26;99278.00;;;-0.59;100.00
56084;BME280;41958;52.416;13.428;2023-03-11T05:27:51;99288.50;;;-0.61;100.00
56084;BME280;41958;52.416;13.428;2023-03-11T05:30:16;99291.72;;;-0.59;100.00
56084;BME280;41958;52.416;13.428;2023-03-11T05:32:42;99307.31;;;-0.45;100.00
56084;BME280;41958;52.416;13.428;2023-03-11T05:35:07;99304.66;;;-0.59;100.00
56084;BME280;41958;52.416;13.428;2023-03-11T05:37:32;99309.03;;;-0.58;100.00
56084;BME280;41958;52.416;13.428;2023-03-11T05:39:59;99317.94;;;-0.53;100.00
56084;BME280;41958;52.416;13.428;2023-03-11T05:42:24;99291.28;;;-0.75;100.00
56084;BME280;41958;52.416;13.428;2023-03-11T05:44:49;99326.78;;;-0.56;100.00
56084;BME280;41958;52.416;13.428;2023-03-11T05:47:15;99327.91;;;-0.57;100.00
56084;BME280;41958;52.416;13.428;2023-03-11T05:49:41;99343.75;;;-0.54;100.00
56084;BME280;41958;52.416;13.428;2023-03-11T05:52:06;99346.59;;;-0.59;100.00
56084;BME280;41958;52.416;13.428;2023-03-11T05:54:31;99362.31;;;-0.51;100.00
56084;BME280;41958;52.416;13.428;2023-03-11T05:56:56;99368.56;;;-0.59;100.00
56084;BME280;41958;52.416;13.428;2023-03-11T05:59:22;99367.13;;;-0.56;100.00
56084;BME280;41958;52.416;13.428;2023-03-11T06:01:48;99372.13;;;-0.58;100.00
56084;BME280;41958;52.416;13.428;2023-03-11T06:04:13;99386.44;;;-0.47;100.00
56084;BME280;41958;52.416;13.428;2023-03-11T06:06:39;99380.22;;;-0.53;100.00
56084;BME280;41958;52.416;13.428;2023-03-11T06:09:05;99391.41;;;-0.49;100.00
56084;BME280;41958;52.416;13.428;2023-03-11T06:11:31;99381.06;;;-0.53;100.00
56084;BME280;41958;52.416;13.428;2023-03-11T06:13:57;99397.31;;;-0.56;100.00
56084;BME280;41958;52.416;13.428;2023-03-11T06:16:23;99407.97;;;-0.55;100.00
56084;BME280;41958;52.416;13.428;2023-03-11T06:18:49;99411.25;;;-0.53;100.00
56084;BME280;41958;52.416;13.428;2023-03-11T06:21:22;99408.72;;;-0.63;100.00
56084;BME280;41958;52.416;13.428;2023-03-11T06:23:48;99419.25;;;-0.56;100.00
56084;BME280;41958;52.416;13.428;2023-03-11T06:26:16;99421.69;;;-0.55;100.00
56084;BME280;41958;52.416;13.428;2023-03-11T06:28:43;99428.19;;;-0.51;100.00
56084;BME280;41958;52.416;13.428;2023-03-11T06:31:11;99436.63;;;-0.47;100.00
56084;BME280;41958;52.416;13.428;2023-03-11T06:33:36;99438.78;;;-0.58;100.00
56084;BME280;41958;52.416;13.428;2023-03-11T06:36:03;99446.91;;;-0.53;100.00
56084;BME280;41958;52.416;13.428;2023-03-11T06:38:29;99446.41;;;-0.55;100.00
56084;BME280;41958;52.416;13.428;2023-03-11T06:41:02;99450.34;;;-0.47;100.00
56084;BME280;41958;52.416;13.428;2023-03-11T06:43:29;99473.41;;;-0.48;100.00
56084;BME280;41958;52.416;13.428;2023-03-11T06:45:55;99477.09;;;-0.53;100.00
56084;BME280;41958;52.416;13.428;2023-03-11T06:48:20;99474.16;;;-0.56;100.00
56084;BME280;41958;52.416;13.428;2023-03-11T06:50:59;99491.22;;;-0.45;100.00
56084;BME280;41958;52.416;13.428;2023-03-11T06:53:26;99495.06;;;-0.46;100.00
56084;BME280;41958;52.416;13.428;2023-03-11T06:58:26;99513.09;;;-0.54;100.00
56084;BME280;41958;52.416;13.428;2023-03-11T07:00:51;99513.78;;;-0.48;100.00
56084;BME280;41958;52.416;13.428;2023-03-11T07:03:16;99525.97;;;-0.55;100.00
56084;BME280;41958;52.416;13.428;2023-03-11T07:05:42;99525.25;;;-0.46;100.00
56084;BME280;41958;52.416;13.428;2023-03-11T07:08:07;99532.28;;;-0.40;100.00
56084;BME280;41958;52.416;13.428;2023-03-11T07:10:33;99537.25;;;-0.42;100.00
56084;BME280;41958;52.416;13.428;2023-03-11T07:12:59;99535.34;;;-0.42;100.00
56084;BME280;41958;52.416;13.428;2023-03-11T07:15:24;99543.34;;;-0.45;100.00
56084;BME280;41958;52.416;13.428;2023-03-11T07:17:50;99550.97;;;-0.42;100.00
56084;BME280;41958;52.416;13.428;2023-03-11T07:20:15;99562.69;;;-0.37;100.00
56084;BME280;41958;52.416;13.428;2023-03-11T07:22:40;99571.31;;;-0.43;100.00
56084;BME280;41958;52.416;13.428;2023-03-11T07:25:06;99565.91;;;-0.35;100.00
56084;BME280;41958;52.416;13.428;2023-03-11T07:27:31;99579.94;;;-0.36;100.00
56084;BME280;41958;52.416;13.428;2023-03-11T07:29:57;99592.44;;;-0.30;100.00
56084;BME280;41958;52.416;13.428;2023-03-11T07:32:22;99595.19;;;-0.30;100.00
56084;BME280;41958;52.416;13.428;2023-03-11T07:34:47;99599.78;;;-0.25;100.00
56084;BME280;41958;52.416;13.428;2023-03-11T07:37:12;99607.41;;;-0.22;100.00
56084;BME280;41958;52.416;13.428;2023-03-11T07:39:38;99618.59;;;-0.19;100.00
56084;BME280;41958;52.416;13.428;2023-03-11T07:42:04;99629.88;;;-0.20;100.00
56084;BME280;41958;52.416;13.428;2023-03-11T07:44:29;99616.97;;;-0.20;100.00
56084;BME280;41958;52.416;13.428;2023-03-11T07:46:54;99624.09;;;-0.19;100.00
56084;BME280;41958;52.416;13.428;2023-03-11T07:49:20;99627.63;;;-0.18;100.00
56084;BME280;41958;52.416;13.428;2023-03-11T07:51:45;99642.28;;;-0.23;100.00
56084;BME280;41958;52.416;13.428;2023-03-11T07:54:11;99633.53;;;-0.25;100.00
56084;BME280;41958;52.416;13.428;2023-03-11T07:56:36;99657.75;;;-0.27;100.00
56084;BME280;41958;52.416;13.428;2023-03-11T07:59:03;99659.56;;;-0.22;100.00
56084;BME280;41958;52.416;13.428;2023-03-11T08:01:30;99662.94;;;-0.11;100.00
56084;BME280;41958;52.416;13.428;2023-03-11T08:04:02;99669.66;;;-0.18;100.00
56084;BME280;41958;52.416;13.428;2023-03-11T08:06:30;99670.25;;;-0.21;100.00
56084;BME280;41958;52.416;13.428;2023-03-11T08:08:59;99676.16;;;-0.13;100.00
56084;BME280;41958;52.416;13.428;2023-03-11T08:11:25;99689.38;;;-0.15;100.00
56084;BME280;41958;52.416;13.428;2023-03-11T08:13:50;99692.91;;;-0.15;100.00
56084;BME280;41958;52.416;13.428;2023-03-11T08:16:18;99700.34;;;-0.15;100.00
56084;BME280;41958;52.416;13.428;2023-03-11T08:18:45;99696.59;;;-0.06;100.00
56084;BME280;41958;52.416;13.428;2023-03-11T08:21:12;99711.34;;;-0.02;100.00
56084;BME280;41958;52.416;13.428;2023-03-11T08:23:37;99711.47;;;0.07;100.00
56084;BME280;41958;52.416;13.428;2023-03-11T08:26:11;99716.56;;;0.14;100.00
56084;BME280;41958;52.416;13.428;2023-03-11T08:28:37;99724.06;;;0.22;100.00
56084;BME280;41958;52.416;13.428;2023-03-11T08:31:11;99732.63;;;0.21;100.00
56084;BME280;41958;52.416;13.428;2023-03-11T08:33:36;99740.34;;;0.32;100.00
56084;BME280;41958;52.416;13.428;2023-03-11T08:36:01;99750.53;;;0.46;100.00
56084;BME280;41958;52.416;13.428;2023-03-11T08:38:27;99748.59;;;0.46;100.00
56084;BME280;41958;52.416;13.428;2023-03-11T08:40:52;99753.78;;;0.48;100.00
56084;BME280;41958;52.416;13.428;2023-03-11T08:43:17;99760.78;;;0.54;100.00
56084;BME280;41958;52.416;13.428;2023-03-11T08:45:42;99766.88;;;0.65;100.00
56084;BME280;41958;52.416;13.428;2023-03-11T08:48:09;99776.09;;;0.46;100.00
56084;BME280;41958;52.416;13.428;2023-03-11T08:50:35;99768.84;;;0.50;100.00
56084;BME280;41958;52.416;13.428;2023-03-11T08:53:00;99777.50;;;0.44;100.00
56084;BME280;41958;52.416;13.428;2023-03-11T08:55:27;99787.41;;;0.45;100.00
56084;BME280;41958;52.416;13.428;2023-03-11T08:57:53;67213.91;;;-149.09;100.00
56084;BME280;41958;52.416;13.428;2023-03-11T09:00:19;67213.91;;;-149.09;100.00
56084;BME280;41958;52.416;13.428;2023-03-11T09:02:44;67213.91;;;-149.09;100.00
56084;BME280;41958;52.416;13.428;2023-03-11T09:05:09;67213.91;;;-149.09;100.00
56084;BME280;41958;52.416;13.428;2023-03-11T09:07:35;67213.91;;;-149.09;100.00
56084;BME280;41958;52.416;13.428;2023-03-11T09:10:00;67213.91;;;-149.09;100.00
56084;BME280;41958;52.416;13.428;2023-03-11T09:12:26;67213.91;;;-149.09;100.00
56084;BME280;41958;52.416;13.428;2023-03-11T09:14:51;67213.91;;;-149.09;100.00
56084;BME280;41958;52.416;13.428;2023-03-11T09:17:18;67213.91;;;-149.09;100.00
56084;BME280;41958;52.416;13.428;2023-03-11T09:19:44;67213.91;;;-149.09;100.00
56084;BME280;41958;52.416;13.428;2023-03-11T09:22:09;67213.91;;;-149.09;100.00
56084;BME280;41958;52.416;13.428;2023-03-11T09:24:35;67213.91;;;-149.09;100.00
56084;BME280;41958;52.416;13.428;2023-03-11T09:27:01;67213.91;;;-149.09;100.00
56084;BME280;41958;52.416;13.428;2023-03-11T09:29:27;67213.91;;;-149.09;100.00
56084;BME280;41958;52.416;13.428;2023-03-11T09:31:52;67213.91;;;-149.09;100.00
56084;BME280;41958;52.416;13.428;2023-03-11T09:34:17;67213.91;;;-149.09;100.00
56084;BME280;41958;52.416;13.428;2023-03-11T09:36:43;67213.91;;;-149.09;100.00
56084;BME280;41958;52.416;13.428;2023-03-11T09:39:09;67213.91;;;-149.09;100.00
56084;BME280;41958;52.416;13.428;2023-03-11T09:41:40;67213.91;;;-149.09;100.00
56084;BME280;41958;52.416;13.428;2023-03-11T09:47:55;67213.91;;;-149.09;100.00
56084;BME280;41958;52.416;13.428;2023-03-11T09:50:29;67213.91;;;-149.09;100.00
56084;BME280;41958;52.416;13.428;2023-03-11T09:53:01;67213.91;;;-149.09;100.00
56084;BME280;41958;52.416;13.428;2023-03-11T09:55:49;67213.91;;;-149.09;100.00
56084;BME280;41958;52.416;13.428;2023-03-11T09:58:36;67213.91;;;-149.09;100.00
56084;BME280;41958;52.416;13.428;2023-03-11T10:03:45;67213.91;;;-149.09;100.00
56084;BME280;41958;52.416;13.428;2023-03-11T10:06:26;67213.91;;;-149.09;100.00
56084;BME280;41958;52.416;13.428;2023-03-11T10:09:14;67213.91;;;-149.09;100.00
56084;BME280;41958;52.416;13.428;2023-03-11T10:11:55;67213.91;;;-149.09;100.00
56084;BME280;41958;52.416;13.428;2023-03-11T10:19:47;67213.91;;;-149.09;100.00
56084;BME280;41958;52.416;13.428;2023-03-11T10:22:27;67213.91;;;-149.09;100.00
56084;BME280;41958;52.416;13.428;2023-03-11T10:25:20;67213.91;;;-149.09;100.00
56084;BME280;41958;52.416;13.428;2023-03-11T10:27:51;67213.91;;;-149.09;100.00
56084;BME280;41958;52.416;13.428;2023-03-11T10:30:31;67213.91;;;-149.09;100.00
56084;BME280;41958;52.416;13.428;2023-03-11T10:35:40;67213.91;;;-149.09;100.00
56084;BME280;41958;52.416;13.428;2023-03-11T10:38:30;67213.91;;;-149.09;100.00
56084;BME280;41958;52.416;13.428;2023-03-11T10:41:02;67213.91;;;-149.09;100.00
56084;BME280;41958;52.416;13.428;2023-03-11T10:43:40;67213.91;;;-149.09;100.00
56084;BME280;41958;52.416;13.428;2023-03-11T10:46:23;67213.91;;;-149.09;100.00
56084;BME280;41958;52.416;13.428;2023-03-11T10:48:49;67213.91;;;-149.09;100.00
56084;BME280;41958;52.416;13.428;2023-03-11T10:56:33;67213.91;;;-149.09;100.00
56084;BME280;41958;52.416;13.428;2023-03-11T10:59:00;67213.91;;;-149.09;100.00
56084;BME280;41958;52.416;13.428;2023-03-11T11:01:26;67213.91;;;-149.09;100.00
56084;BME280;41958;52.416;13.428;2023-03-11T11:03:55;67213.91;;;-149.09;100.00
56084;BME280;41958;52.416;13.428;2023-03-11T11:06:27;67213.91;;;-149.09;100.00
56084;BME280;41958;52.416;13.428;2023-03-11T11:09:16;67213.91;;;-149.09;100.00
56084;BME280;41958;52.416;13.428;2023-03-11T11:14:24;67213.91;;;-149.09;100.00
56084;BME280;41958;52.416;13.428;2023-03-11T11:16:50;67213.91;;;-149.09;100.00
56084;BME280;41958;52.416;13.428;2023-03-11T11:19:16;67213.91;;;-149.09;100.00
56084;BME280;41958;52.416;13.428;2023-03-11T11:21:46;67213.91;;;-149.09;100.00
56084;BME280;41958;52.416;13.428;2023-03-11T11:24:25;67213.91;;;-149.09;100.00
56084;BME280;41958;52.416;13.428;2023-03-11T11:27:05;67213.91;;;-149.09;100.00
56084;BME280;41958;52.416;13.428;2023-03-11T11:29:35;67213.91;;;-149.09;100.00
56084;BME280;41958;52.416;13.428;2023-03-11T11:32:19;67213.91;;;-149.09;100.00
56084;BME280;41958;52.416;13.428;2023-03-11T11:37:26;67213.91;;;-149.09;100.00
56084;BME280;41958;52.416;13.428;2023-03-11T11:42:43;67213.91;;;-149.09;100.00
56084;BME280;41958;52.416;13.428;2023-03-11T11:45:16;67213.91;;;-149.09;100.00
56084;BME280;41958;52.416;13.428;2023-03-11T11:47:47;67213.91;;;-149.09;100.00
56084;BME280;41958;52.416;13.428;2023-03-11T11:50:59;67213.91;;;-149.09;100.00
56084;BME280;41958;52.416;13.428;2023-03-11T11:53:14;67213.91;;;-149.09;100.00
56084;BME280;41958;52.416;13.428;2023-03-11T11:55:47;67213.91;;;-149.09;100.00
56084;BME280;41958;52.416;13.428;2023-03-11T11:58:13;67213.91;;;-149.09;100.00
56084;BME280;41958;52.416;13.428;2023-03-11T12:06:33;67213.91;;;-149.09;100.00
56084;BME280;41958;52.416;13.428;2023-03-11T12:09:11;67213.91;;;-149.09;100.00
56084;BME280;41958;52.416;13.428;2023-03-11T12:11:48;67213.91;;;-149.09;100.00
56084;BME280;41958;52.416;13.428;2023-03-11T12:14:42;67213.91;;;-149.09;100.00
56084;BME280;41958;52.416;13.428;2023-03-11T12:17:11;67213.91;;;-149.09;100.00
56084;BME280;41958;52.416;13.428;2023-03-11T12:19:52;67213.91;;;-149.09;100.00
56084;BME280;41958;52.416;13.428;2023-03-11T12:22:54;67213.91;;;-149.09;100.00
56084;BME280;41958;52.416;13.428;2023-03-11T12:25:28;67213.91;;;-149.09;100.00
56084;BME280;41958;52.416;13.428;2023-03-11T12:28:16;67213.91;;;-149.09;100.00
56084;BME280;41958;52.416;13.428;2023-03-11T12:30:55;67213.91;;;-149.09;100.00
56084;BME280;41958;52.416;13.428;2023-03-11T12:33:34;67213.91;;;-149.09;100.00
56084;BME280;41958;52.416;13.428;2023-03-11T12:36:02;67213.91;;;-149.09;100.00
56084;BME280;41958;52.416;13.428;2023-03-11T12:38:34;67213.91;;;-149.09;100.00
56084;BME280;41958;52.416;13.428;2023-03-11T12:45:56;67213.91;;;-149.09;100.00
56084;BME280;41958;52.416;13.428;2023-03-11T12:50:51;67213.91;;;-149.09;100.00
56084;BME280;41958;52.416;13.428;2023-03-11T12:53:18;67213.91;;;-149.09;100.00
56084;BME280;41958;52.416;13.428;2023-03-11T12:56:09;67213.91;;;-149.09;100.00
56084;BME280;41958;52.416;13.428;2023-03-11T13:07:34;67213.91;;;-149.09;100.00
56084;BME280;41958;52.416;13.428;2023-03-11T13:12:43;67213.91;;;-149.09;100.00
56084;BME280;41958;52.416;13.428;2023-03-11T13:18:02;67213.91;;;-149.09;100.00
56084;BME280;41958;52.416;13.428;2023-03-11T13:31:42;67213.91;;;-149.09;100.00
56084;BME280;41958;52.416;13.428;2023-03-11T13:34:24;67213.91;;;-149.09;100.00
56084;BME280;41958;52.416;13.428;2023-03-11T13:37:22;67213.91;;;-149.09;100.00
56084;BME280;41958;52.416;13.428;2023-03-11T13:44:49;67213.91;;;-149.09;100.00
56084;BME280;41958;52.416;13.428;2023-03-11T13:47:16;67213.91;;;-149.09;100.00
56084;BME280;41958;52.416;13.428;2023-03-11T13:52:33;67213.91;;;-149.09;100.00
56084;BME280;41958;52.416;13.428;2023-03-11T13:55:16;67213.91;;;-149.09;100.00
56084;BME280;41958;52.416;13.428;2023-03-11T13:57:51;67213.91;;;-149.09;100.00
56084;BME280;41958;52.416;13.428;2023-03-11T14:00:19;67213.91;;;-149.09;100.00
56084;BME280;41958;52.416;13.428;2023-03-11T14:02:50;67213.91;;;-149.09;100.00
56084;BME280;41958;52.416;13.428;2023-03-11T14:05:22;67213.91;;;-149.09;100.00